Morrow, OH (45152)

9:53 AM EST on November 23, 2014 (GMT -0500)
Indian Lakes | Change Station
CLOSE
Current Station
Personal Weather Station
Location: Clarksville, OH
Elevation: 961 ft
Nearby Weather Stations

Elev 961 ft 39.41 °N, 84.02 °W | Updated 5 seconds ago

Mostly Cloudy
Mostly Cloudy
52.6 °F
Feels Like 52.6 °F
N
6.0
Wind Variable Wind from SSE
Gusts 9.0 mph

Today
High -- | Low -- °F
--% Chance of Precip.
Yesterday
High -- | Low -- °F
Precip. -- in
7:28 AM 5:16 PM
New Moon, 1% visible
Pressure 30.01 in
Visibility 10.0 miles
Clouds Mostly Cloudy 3300 ft
Mostly Cloudy 4300 ft
Overcast 6000 ft
Dew Point 40 °F
Humidity 62%
Rainfall 0.00 in
Snow Depth Not available.
UV 0 out of 12
Pollen .10 out of 12
Air Quality Not available.
Flu Activity Not available.
METAR KILN 231354Z AUTO 18010KT 10SM BKN033 BKN043 OVC060 11/03 A2998 RMK AO2 SLP163 T01060033

More Conditions Fewer Conditions

Pressure 30.01 in
Visibility 10.0 miles
Clouds Mostly Cloudy 3300 ft
Mostly Cloudy 4300 ft
Overcast 6000 ft
Dew Point 40 °F
Humidity 62%
Rainfall 0.00 in
Snow Depth Not available.
UV 0 out of 12
Pollen .10 out of 12
Air Quality Not available.
Flu Activity Not available.
METAR KILN 231354Z AUTO 18010KT 10SM BKN033 BKN043 OVC060 11/03 A2998 RMK AO2 SLP163 T01060033

More Conditions Fewer Conditions

10-Day Weather Forecast

Almanac

Astronomy

Nov. 23, 2014 Rise Set
Actual Time
Civil Twilight
Nautical Twilight
Astronomical Twilight
Moon
Length of Visible Light
Length of Day
Tomorrow will be .
, % of the Moon is Illuminated

Today's Extremes

State Highs State Lows

Community

WunderPhotos

Upload Photos

1,773,078 photos uploaded!

WunderBlogs® & News

Nearby

Air Quality

  Air Quality AQ Index Pollutant
Not available.

Snow Depth

Station Depth Elevation

Earthquake Activity

City Distance Mag. Time & Date
Minimum magnitude displayed is 2.5.

Coastal Water Temperatures

Place Temperature

Nearby Weather Stations